Astoria, Illinois
Current Conditions -  °F | °C
As of 6:15 AM on Sunday 25 Jan 2015 (Local Time) from KMQB Reporting Station
Light Rain Light Rain  
Wind Chill:   Ceiling: 900
Heat Index:   Visibility: 5mi
Dew Point:   Wind: 0mph
Humidity: 99%   Direction: NA
Pressure: 29.6"   Gusts: NA
Location:  40.23°N, 90.36°W
Report Text: KMQB 251215Z AUTO 00000KT 5SM -RA BKN009 BKN017 OVC031 03/03 A2960 RMK AO2 P0001 T00260025
Loading
Personal Weather Stations






























Interactive Weather Map New forecast layout! Learn more

10-Day Weather Forecast

Advertisements
Track Severe Weather on mobile